Time;durP1;ratioP1;P1;durP2;ratioP2;P2;SDS_P1;SDS_P2;PMS_P1;PMS_P2;Temp;Humidity;BMP_temperature;BMP_pressure;BME280_temperature;BME280_humidity;BME280_pressure;Samples;Min_cycle;Max_cycle;Signal;HPM_P1;HPM_P2
2022/08/11 00:00:56;;;;;;;;;;;21.40;99.90;;;;;;4587481;19;19926;-35
2022/08/11 00:02:30;;;;;;;;;;;21.30;99.90;;;;;;4590143;19;19919;-36
2022/08/11 00:04:02;;;;;;;;;;;21.30;99.90;;;;;;4588999;19;20333;-40
2022/08/11 00:05:33;;;;;;;;;;;21.30;99.90;;;;;;4590324;19;19914;-42
2022/08/11 00:07:05;;;;;;;;;;;21.30;99.90;;;;;;4589555;19;19976;-35
2022/08/11 00:08:36;;;;;;;;;;;21.30;99.90;;;;;;4587088;19;19930;-40
2022/08/11 00:10:10;;;;;;;;;;;21.30;99.90;;;;;;4589956;19;19921;-37
2022/08/11 00:11:48;;;;;;;;;;;21.30;99.90;;;;;;4594593;19;19914;-41
2022/08/11 00:13:19;;;;;;;;;;;21.30;99.90;;;;;;4592073;19;19927;-34
2022/08/11 00:14:54;;;;;;;;;;;21.30;99.90;;;;;;4593080;19;19942;-35
2022/08/11 00:16:25;;;;;;;;;;;21.30;99.90;;;;;;4594246;19;19919;-40
2022/08/11 00:17:57;;;;;;;;;;;21.30;99.90;;;;;;4595153;19;20595;-36
2022/08/11 00:19:32;;;;;;;;;;;21.30;99.90;;;;;;4592161;19;19946;-35
2022/08/11 00:21:03;;;;;;;;;;;21.30;99.90;;;;;;4592775;19;19919;-37
2022/08/11 00:22:35;;;;;;;;;;;21.30;99.90;;;;;;4593670;19;19939;-40
2022/08/11 00:24:07;;;;;;;;;;;21.30;99.90;;;;;;4592440;19;19926;-37
2022/08/11 00:25:39;;;;;;;;;;;21.30;99.90;;;;;;4591019;19;20256;-38
2022/08/11 00:27:10;;;;;;;;;;;21.30;99.90;;;;;;4593650;19;19945;-35
2022/08/11 00:28:42;;;;;;;;;;;21.30;99.90;;;;;;4592531;19;19923;-43
2022/08/11 00:30:13;;;;;;;;;;;21.30;99.90;;;;;;4594512;19;19926;-37
2022/08/11 00:31:45;;;;;;;;;;;21.30;99.90;;;;;;4594949;19;19919;-39
2022/08/11 00:33:17;;;;;;;;;;;21.30;99.90;;;;;;4594297;19;19910;-45
2022/08/11 00:34:48;;;;;;;;;;;21.30;99.90;;;;;;4592759;19;20043;-36
2022/08/11 00:36:19;;;;;;;;;;;21.30;99.90;;;;;;4593129;19;20013;-40
2022/08/11 00:37:50;;;;;;;;;;;21.30;99.90;;;;;;4594228;19;19922;-35
2022/08/11 00:39:22;;;;;;;;;;;21.30;99.90;;;;;;4593711;19;19926;-35
2022/08/11 00:40:56;;;;;;;;;;;21.30;99.90;;;;;;4590973;19;19948;-43
2022/08/11 00:42:26;;;;;;;;;;;21.30;99.90;;;;;;4593314;19;19922;-35
2022/08/11 00:44:09;;;;;;;;;;;21.30;99.90;;;;;;4594220;19;19922;-42
2022/08/11 00:46:04;;;;;;;;;;;21.30;99.90;;;;;;4593910;19;19921;-36
2022/08/11 00:47:54;;;;;;;;;;;21.30;99.90;;;;;;4591781;19;20233;-34
2022/08/11 00:49:40;;;;;;;;;;;21.30;99.90;;;;;;4589701;19;20467;-38
2022/08/11 00:51:22;;;;;;;;;;;21.30;99.90;;;;;;4592437;19;20531;-36
2022/08/11 00:53:11;;;;;;;;;;;21.30;99.90;;;;;;4595336;19;19927;-38
2022/08/11 00:55:00;;;;;;;;;;;21.30;99.90;;;;;;4591914;19;20262;-36
2022/08/11 00:56:58;;;;;;;;;;;21.30;99.90;;;;;;4593105;19;19930;-42
2022/08/11 00:58:47;;;;;;;;;;;21.20;99.90;;;;;;4591229;19;19954;-36
2022/08/11 01:00:22;;;;;;;;;;;21.20;99.90;;;;;;4590602;19;19942;-38
2022/08/11 01:01:56;;;;;;;;;;;21.30;99.90;;;;;;4592360;19;20234;-35
2022/08/11 01:03:33;;;;;;;;;;;21.20;99.90;;;;;;4591773;19;19982;-36
2022/08/11 01:05:04;;;;;;;;;;;21.20;99.90;;;;;;4591814;19;19911;-38
2022/08/11 01:06:50;;;;;;;;;;;21.20;99.90;;;;;;4591301;19;19919;-42
2022/08/11 01:08:24;;;;;;;;;;;21.20;99.90;;;;;;4590060;19;20339;-35
2022/08/11 01:10:01;;;;;;;;;;;21.20;99.90;;;;;;4592064;19;20002;-34
2022/08/11 01:11:47;;;;;;;;;;;21.20;99.90;;;;;;4592503;19;20354;-35
2022/08/11 01:13:30;;;;;;;;;;;21.20;99.90;;;;;;4590537;19;19978;-42
2022/08/11 01:15:20;;;;;;;;;;;21.20;99.90;;;;;;4590282;19;19997;-37
2022/08/11 01:17:16;;;;;;;;;;;21.20;99.90;;;;;;4592017;19;19914;-35
2022/08/11 01:19:02;;;;;;;;;;;21.20;99.90;;;;;;4589971;19;19960;-36
2022/08/11 01:20:36;;;;;;;;;;;21.20;99.90;;;;;;4590704;19;20365;-35
2022/08/11 01:22:26;;;;;;;;;;;21.20;99.90;;;;;;4588801;19;19923;-35
2022/08/11 01:23:57;;;;;;;;;;;21.20;99.90;;;;;;4591560;19;19919;-41
2022/08/11 01:25:46;;;;;;;;;;;21.20;99.90;;;;;;4590017;19;19919;-44
2022/08/11 01:27:20;;;;;;;;;;;21.20;99.90;;;;;;4589706;19;19921;-38
2022/08/11 01:29:00;;;;;;;;;;;21.20;99.90;;;;;;4590913;19;19915;-43
2022/08/11 01:30:49;;;;;;;;;;;21.20;99.90;;;;;;4591219;19;19915;-43
2022/08/11 01:32:38;;;;;;;;;;;21.20;99.90;;;;;;4590102;19;19967;-43
2022/08/11 01:34:28;;;;;;;;;;;21.20;99.90;;;;;;4591461;19;19922;-37
2022/08/11 01:36:18;;;;;;;;;;;21.20;99.90;;;;;;4590729;19;20336;-35
2022/08/11 01:38:04;;;;;;;;;;;21.10;99.90;;;;;;4589791;19;20368;-39
2022/08/11 01:39:44;;;;;;;;;;;21.20;99.90;;;;;;4591705;19;19922;-42
2022/08/11 01:41:24;;;;;;;;;;;21.20;99.90;;;;;;4591668;19;20347;-40
2022/08/11 01:45:14;;;;;;;;;;;21.20;99.90;;;;;;4590464;19;19918;-43
2022/08/11 01:46:51;;;;;;;;;;;21.20;99.90;;;;;;4590984;19;19934;-36
2022/08/11 01:48:28;;;;;;;;;;;21.20;99.90;;;;;;4589900;19;19932;-39
2022/08/11 01:50:20;;;;;;;;;;;21.20;99.90;;;;;;4590307;19;19919;-39
2022/08/11 01:52:01;;;;;;;;;;;21.10;99.90;;;;;;4589542;19;19926;-37
2022/08/11 01:53:38;;;;;;;;;;;21.20;99.90;;;;;;4590006;19;19945;-35
2022/08/11 01:55:13;;;;;;;;;;;21.20;99.90;;;;;;4591580;19;19918;-36
2022/08/11 01:56:55;;;;;;;;;;;21.10;99.90;;;;;;4590693;19;19939;-41
2022/08/11 01:58:26;;;;;;;;;;;21.20;99.90;;;;;;4589907;19;20357;-37
2022/08/11 02:00:33;;;;;;;;;;;21.10;99.90;;;;;;4591234;19;20407;-41
2022/08/11 02:02:16;;;;;;;;;;;21.20;99.90;;;;;;4589740;19;19953;-37
2022/08/11 02:04:05;;;;;;;;;;;21.10;99.90;;;;;;4590248;19;19933;-35
2022/08/11 02:05:45;;;;;;;;;;;21.10;99.90;;;;;;4590728;19;19982;-35
2022/08/11 02:07:18;;;;;;;;;;;21.20;99.90;;;;;;4590120;19;19918;-34
2022/08/11 02:09:09;;;;;;;;;;;21.20;99.90;;;;;;4590333;19;19939;-36
2022/08/11 02:12:40;;;;;;;;;;;21.10;99.90;;;;;;4589897;19;19922;-41
2022/08/11 02:14:13;;;;;;;;;;;21.10;99.90;;;;;;4590983;19;19915;-38
2022/08/11 02:15:45;;;;;;;;;;;21.10;99.90;;;;;;4589565;19;19939;-41
2022/08/11 02:17:18;;;;;;;;;;;21.10;99.90;;;;;;4589713;19;20333;-38
2022/08/11 02:24:48;;;;;;;;;;;21.10;99.90;;;;;;4590284;19;19922;-42
2022/08/11 02:26:41;;;;;;;;;;;21.10;99.90;;;;;;4588277;19;19929;-41
2022/08/11 02:28:12;;;;;;;;;;;21.10;99.90;;;;;;4588620;19;20380;-42
2022/08/11 02:29:48;;;;;;;;;;;21.10;99.90;;;;;;4589055;19;19926;-38
2022/08/11 02:33:22;;;;;;;;;;;21.10;99.90;;;;;;4588555;19;19929;-38
2022/08/11 02:35:11;;;;;;;;;;;21.10;99.90;;;;;;4589816;19;19923;-37
2022/08/11 02:36:44;;;;;;;;;;;21.10;99.90;;;;;;4589187;19;20333;-35
2022/08/11 02:38:27;;;;;;;;;;;21.10;99.90;;;;;;4589143;19;19911;-41
2022/08/11 02:39:58;;;;;;;;;;;21.10;99.90;;;;;;4590524;19;19918;-34
2022/08/11 02:43:38;;;;;;;;;;;21.10;99.90;;;;;;4589722;19;19918;-34
2022/08/11 02:45:28;;;;;;;;;;;21.10;99.90;;;;;;4589069;19;19933;-42
2022/08/11 02:47:01;;;;;;;;;;;21.10;99.90;;;;;;4590048;19;19917;-40
2022/08/11 02:50:27;;;;;;;;;;;21.10;99.90;;;;;;4589654;19;20417;-35
2022/08/11 02:52:16;;;;;;;;;;;21.10;99.90;;;;;;4589262;19;19915;-34
2022/08/11 02:53:56;;;;;;;;;;;21.10;99.90;;;;;;4589269;19;19994;-38
2022/08/11 02:55:46;;;;;;;;;;;21.10;99.90;;;;;;4590008;19;19911;-35
2022/08/11 02:57:17;;;;;;;;;;;21.10;99.90;;;;;;4590221;19;19978;-37
2022/08/11 03:01:18;;;;;;;;;;;21.00;99.90;;;;;;4588144;19;19921;-33
2022/08/11 03:03:08;;;;;;;;;;;21.10;99.90;;;;;;4590333;19;20040;-38
2022/08/11 03:04:48;;;;;;;;;;;21.10;99.90;;;;;;4589444;19;19923;-36
2022/08/11 03:06:30;;;;;;;;;;;21.10;99.90;;;;;;4587301;19;19922;-40
2022/08/11 03:08:01;;;;;;;;;;;21.00;99.90;;;;;;4589991;19;19922;-37
2022/08/11 03:09:43;;;;;;;;;;;21.10;99.90;;;;;;4588465;19;19966;-40
2022/08/11 03:17:11;;;;;;;;;;;21.10;99.90;;;;;;4589433;19;20002;-36
2022/08/11 03:18:50;;;;;;;;;;;21.10;99.90;;;;;;4588209;19;20246;-34
2022/08/11 03:20:21;;;;;;;;;;;21.10;99.90;;;;;;4589645;19;19922;-35
2022/08/11 03:22:12;;;;;;;;;;;21.10;99.90;;;;;;4589233;19;19938;-35
2022/08/11 03:23:53;;;;;;;;;;;21.10;99.90;;;;;;4587768;19;20341;-35
2022/08/11 03:25:36;;;;;;;;;;;21.10;99.90;;;;;;4590010;19;19919;-40
2022/08/11 03:27:11;;;;;;;;;;;21.10;99.90;;;;;;4588753;19;19923;-39
2022/08/11 03:28:50;;;;;;;;;;;21.10;99.90;;;;;;4588734;19;19922;-37
2022/08/11 03:30:40;;;;;;;;;;;21.10;99.90;;;;;;4587558;19;19919;-36
2022/08/11 03:32:13;;;;;;;;;;;21.10;99.90;;;;;;4587972;19;20486;-36
2022/08/11 03:34:01;;;;;;;;;;;21.10;99.90;;;;;;4589719;19;19915;-35
2022/08/11 03:35:46;;;;;;;;;;;21.10;99.90;;;;;;4589032;19;19922;-41
2022/08/11 03:37:49;;;;;;;;;;;21.10;99.90;;;;;;4587625;19;19914;-41
2022/08/11 03:39:38;;;;;;;;;;;21.10;99.90;;;;;;4589226;19;19918;-38
2022/08/11 03:41:51;;;;;;;;;;;21.10;99.90;;;;;;4587336;19;19918;-39
2022/08/11 03:43:33;;;;;;;;;;;21.10;99.90;;;;;;4588540;19;19939;-40
2022/08/11 03:45:08;;;;;;;;;;;21.10;99.90;;;;;;4592062;19;19923;-37
2022/08/11 03:46:58;;;;;;;;;;;21.10;99.90;;;;;;4594037;19;19917;-38
2022/08/11 03:48:39;;;;;;;;;;;21.10;99.90;;;;;;4593185;19;20392;-40
2022/08/11 03:50:28;;;;;;;;;;;21.10;99.90;;;;;;4593576;19;19986;-38
2022/08/11 03:52:02;;;;;;;;;;;21.10;99.90;;;;;;4592934;19;19982;-36
2022/08/11 03:53:48;;;;;;;;;;;21.10;99.90;;;;;;4592315;19;20335;-35
2022/08/11 03:55:20;;;;;;;;;;;21.10;99.90;;;;;;4592499;19;19937;-37
2022/08/11 03:57:10;;;;;;;;;;;21.10;99.90;;;;;;4591999;19;20254;-37
2022/08/11 03:58:59;;;;;;;;;;;21.10;99.90;;;;;;4592300;19;19923;-37
2022/08/11 04:00:48;;;;;;;;;;;21.10;99.90;;;;;;4593220;19;19918;-40
2022/08/11 04:02:31;;;;;;;;;;;21.10;99.90;;;;;;4592831;19;20389;-46
2022/08/11 04:04:11;;;;;;;;;;;21.10;99.90;;;;;;4592701;19;19982;-40
2022/08/11 04:06:10;;;;;;;;;;;21.10;99.90;;;;;;4591364;19;19922;-43
2022/08/11 04:07:59;;;;;;;;;;;21.10;99.90;;;;;;4593544;19;19923;-40
2022/08/11 04:09:49;;;;;;;;;;;21.10;99.90;;;;;;4591110;19;19935;-42
2022/08/11 04:11:39;;;;;;;;;;;21.10;99.90;;;;;;4592493;19;19911;-37
2022/08/11 04:13:13;;;;;;;;;;;21.10;99.90;;;;;;4592090;19;19922;-41
2022/08/11 04:16:41;;;;;;;;;;;21.10;99.90;;;;;;4591914;19;19929;-35
2022/08/11 04:18:30;;;;;;;;;;;21.10;99.90;;;;;;4592975;19;19982;-39
2022/08/11 04:20:02;;;;;;;;;;;21.10;99.90;;;;;;4592986;19;19935;-36
2022/08/11 04:21:51;;;;;;;;;;;21.10;99.90;;;;;;4592220;19;19929;-37
2022/08/11 04:23:31;;;;;;;;;;;21.10;99.90;;;;;;4593657;19;19923;-32
2022/08/11 04:25:14;;;;;;;;;;;21.10;99.90;;;;;;4592663;19;19922;-37
2022/08/11 04:27:00;;;;;;;;;;;21.10;99.90;;;;;;4592586;19;19970;-35
2022/08/11 04:28:37;;;;;;;;;;;21.10;99.90;;;;;;4591434;19;19918;-41
2022/08/11 04:30:27;;;;;;;;;;;21.10;99.90;;;;;;4592250;19;19923;-36
2022/08/11 04:32:16;;;;;;;;;;;21.10;99.90;;;;;;4593122;19;19915;-35
2022/08/11 04:34:07;;;;;;;;;;;21.20;99.90;;;;;;4590556;19;19982;-35
2022/08/11 04:35:42;;;;;;;;;;;21.20;99.90;;;;;;4590533;19;19938;-43
2022/08/11 04:37:33;;;;;;;;;;;21.20;99.90;;;;;;4592201;19;19971;-39
2022/08/11 04:39:04;;;;;;;;;;;21.10;99.90;;;;;;4592140;19;19943;-43
2022/08/11 04:40:43;;;;;;;;;;;21.20;99.90;;;;;;4591732;19;19949;-39
2022/08/11 04:44:47;;;;;;;;;;;21.20;99.90;;;;;;4590724;19;19911;-43
2022/08/11 04:46:36;;;;;;;;;;;21.20;99.90;;;;;;4591069;19;19925;-42
2022/08/11 05:02:03;;;;;;;;;;;21.40;99.90;;;;;;4591651;19;19926;-34
2022/08/11 05:03:39;;;;;;;;;;;21.30;99.90;;;;;;4592564;19;19915;-35
2022/08/11 05:05:31;;;;;;;;;;;21.30;99.90;;;;;;4591840;19;20245;-39
2022/08/11 05:07:21;;;;;;;;;;;21.30;99.90;;;;;;4591369;19;19922;-34
2022/08/11 05:08:54;;;;;;;;;;;21.30;99.90;;;;;;4591458;19;20014;-33
2022/08/11 05:10:41;;;;;;;;;;;21.30;99.90;;;;;;4591659;19;20012;-37
2022/08/11 05:12:12;;;;;;;;;;;21.30;99.90;;;;;;4590889;19;19938;-36
2022/08/11 05:36:18;;;;;;;;;;;20.70;99.90;;;;;;4591823;19;20344;-36
2022/08/11 05:56:26;;;;;;;;;;;20.50;99.90;;;;;;4591187;19;19974;-38
2022/08/11 05:58:01;;;;;;;;;;;20.50;99.90;;;;;;4592728;19;19915;-34
2022/08/11 05:59:32;;;;;;;;;;;20.60;99.90;;;;;;4593196;19;19919;-34
2022/08/11 06:01:03;;;;;;;;;;;20.60;99.90;;;;;;4593198;19;19923;-38
2022/08/11 06:02:41;;;;;;;;;;;20.60;99.90;;;;;;4592571;19;19918;-40
2022/08/11 06:04:16;;;;;;;;;;;20.60;99.90;;;;;;4592354;19;20381;-37
2022/08/11 06:05:46;;;;;;;;;;;20.70;99.90;;;;;;4592172;19;19918;-39
2022/08/11 06:07:25;;;;;;;;;;;20.60;99.90;;;;;;4590484;19;19940;-34
2022/08/11 06:08:56;;;;;;;;;;;20.70;99.90;;;;;;4588289;19;20249;-37
2022/08/11 06:10:34;;;;;;;;;;;20.70;99.90;;;;;;4591209;19;19931;-39
2022/08/11 06:12:14;;;;;;;;;;;20.70;99.90;;;;;;4593113;19;19915;-41
2022/08/11 06:13:46;;;;;;;;;;;20.70;99.90;;;;;;4593224;19;19929;-35
2022/08/11 06:15:16;;;;;;;;;;;20.60;99.90;;;;;;4592087;19;19911;-35
2022/08/11 06:16:48;;;;;;;;;;;20.60;99.90;;;;;;4591377;19;20325;-37
2022/08/11 06:18:19;;;;;;;;;;;20.70;99.90;;;;;;4591513;19;19921;-41
2022/08/11 06:19:56;;;;;;;;;;;20.80;99.90;;;;;;4592540;19;19918;-34
2022/08/11 06:21:27;;;;;;;;;;;20.80;99.90;;;;;;4592271;19;20012;-34
2022/08/11 06:22:58;;;;;;;;;;;20.70;99.90;;;;;;4592767;19;19911;-38
2022/08/11 06:24:30;;;;;;;;;;;20.70;99.90;;;;;;4592562;19;19918;-44
2022/08/11 06:26:05;;;;;;;;;;;20.60;99.90;;;;;;4592934;19;19915;-35
2022/08/11 06:27:37;;;;;;;;;;;20.60;99.90;;;;;;4588995;19;19928;-35
2022/08/11 06:29:08;;;;;;;;;;;20.60;99.90;;;;;;4589289;19;19923;-35
2022/08/11 06:30:41;;;;;;;;;;;20.60;99.90;;;;;;4590125;19;19939;-40
2022/08/11 06:32:12;;;;;;;;;;;20.60;99.90;;;;;;4589894;19;19943;-37
2022/08/11 06:33:49;;;;;;;;;;;20.70;99.90;;;;;;4590011;19;20008;-45
2022/08/11 06:35:33;;;;;;;;;;;20.90;99.90;;;;;;4589996;19;19974;-44
2022/08/11 06:37:04;;;;;;;;;;;21.00;99.90;;;;;;4590246;19;20222;-34
2022/08/11 06:39:04;;;;;;;;;;;21.00;99.90;;;;;;4590403;19;20191;-40
2022/08/11 06:40:37;;;;;;;;;;;21.10;99.90;;;;;;4589756;19;20390;-35
2022/08/11 06:42:09;;;;;;;;;;;21.10;99.90;;;;;;4589774;19;19918;-39
2022/08/11 06:43:52;;;;;;;;;;;21.20;99.90;;;;;;4590165;19;19978;-37
2022/08/11 06:45:31;;;;;;;;;;;21.20;99.90;;;;;;4589798;19;19921;-38
2022/08/11 06:47:08;;;;;;;;;;;21.30;99.90;;;;;;4589687;19;19915;-35
2022/08/11 06:48:39;;;;;;;;;;;21.30;99.90;;;;;;4589164;19;20405;-36
2022/08/11 06:52:01;;;;;;;;;;;21.30;99.90;;;;;;4588727;19;19919;-41
2022/08/11 06:53:33;;;;;;;;;;;21.30;99.90;;;;;;4589487;19;19915;-37
2022/08/11 06:55:10;;;;;;;;;;;21.30;99.90;;;;;;4589268;19;20338;-33
2022/08/11 07:00:28;;;;;;;;;;;21.40;99.90;;;;;;4589592;19;19935;-36
2022/08/11 07:02:14;;;;;;;;;;;21.50;99.90;;;;;;4589526;19;19921;-39
2022/08/11 07:03:46;;;;;;;;;;;21.50;99.90;;;;;;4589682;19;19914;-41
2022/08/11 07:05:21;;;;;;;;;;;21.50;99.90;;;;;;4589169;19;19930;-42
2022/08/11 07:16:29;;;;;;;;;;;20.90;99.90;;;;;;4589983;19;19948;-35
2022/08/11 07:29:13;;;;;;;;;;;20.90;99.90;;;;;;4587668;19;20421;-36
2022/08/11 07:30:44;;;;;;;;;;;20.80;99.90;;;;;;4589049;19;19927;-37
2022/08/11 07:32:41;;;;;;;;;;;20.80;99.90;;;;;;4588942;19;19921;-40
2022/08/11 07:34:20;;;;;;;;;;;20.70;99.90;;;;;;4588752;19;19914;-38
2022/08/11 07:35:54;;;;;;;;;;;20.80;99.90;;;;;;4588967;19;19938;-36
2022/08/11 07:37:25;;;;;;;;;;;20.90;99.90;;;;;;4589070;19;19968;-35
2022/08/11 07:38:56;;;;;;;;;;;21.10;99.90;;;;;;4589094;19;19923;-44
2022/08/11 07:40:26;;;;;;;;;;;21.10;99.90;;;;;;4588524;19;19918;-43
2022/08/11 07:41:58;;;;;;;;;;;21.00;99.90;;;;;;4589051;19;19995;-37
2022/08/11 07:43:29;;;;;;;;;;;20.90;99.90;;;;;;4588486;19;19946;-38
2022/08/11 07:52:32;;;;;;;;;;;20.60;99.90;;;;;;4587799;19;19911;-41
2022/08/11 07:54:03;;;;;;;;;;;20.60;99.90;;;;;;4588800;19;19933;-41
2022/08/11 07:55:34;;;;;;;;;;;20.60;99.90;;;;;;4588367;19;19919;-36
2022/08/11 08:19:13;;;;;;;;;;;20.90;99.90;;;;;;4589129;19;19911;-34
2022/08/11 08:20:45;;;;;;;;;;;21.10;99.90;;;;;;4590327;19;19915;-35
2022/08/11 08:22:19;;;;;;;;;;;21.20;99.90;;;;;;4590089;19;19922;-37
2022/08/11 08:23:50;;;;;;;;;;;21.30;99.90;;;;;;4590418;19;19919;-38
2022/08/11 08:25:39;;;;;;;;;;;21.30;99.90;;;;;;4587679;19;19922;-43
2022/08/11 08:27:12;;;;;;;;;;;21.20;99.90;;;;;;4589383;19;19935;-37
2022/08/11 08:28:45;;;;;;;;;;;21.00;99.90;;;;;;4585482;19;19926;-39
2022/08/11 08:32:06;;;;;;;;;;;20.80;99.90;;;;;;4590207;19;19958;-37
2022/08/11 08:33:37;;;;;;;;;;;20.80;99.90;;;;;;4592632;19;19930;-42
2022/08/11 08:35:11;;;;;;;;;;;20.90;99.90;;;;;;4591075;19;19915;-42
2022/08/11 08:36:46;;;;;;;;;;;21.10;99.90;;;;;;4593655;19;20332;-45
2022/08/11 08:38:18;;;;;;;;;;;21.30;99.90;;;;;;4592396;19;19922;-43
2022/08/11 08:39:49;;;;;;;;;;;21.50;99.90;;;;;;4592634;19;19943;-42
2022/08/11 08:41:21;;;;;;;;;;;21.60;99.90;;;;;;4592315;19;19922;-38
2022/08/11 08:42:53;;;;;;;;;;;21.60;99.90;;;;;;4592116;19;19922;-42
2022/08/11 08:44:24;;;;;;;;;;;21.60;99.90;;;;;;4592797;19;20341;-38
2022/08/11 08:45:57;;;;;;;;;;;21.60;99.90;;;;;;4592402;19;19994;-37
2022/08/11 08:47:28;;;;;;;;;;;21.60;99.90;;;;;;4592073;19;19930;-43
2022/08/11 08:48:59;;;;;;;;;;;21.70;99.90;;;;;;4591877;19;19919;-36
2022/08/11 08:52:24;;;;;;;;;;;21.70;99.90;;;;;;4591155;19;19915;-36
2022/08/11 08:53:55;;;;;;;;;;;21.80;99.90;;;;;;4592098;19;19982;-38
2022/08/11 08:55:27;;;;;;;;;;;21.80;99.90;;;;;;4591654;19;20260;-41
2022/08/11 08:57:00;;;;;;;;;;;21.80;99.90;;;;;;4592042;19;19919;-43
2022/08/11 08:58:32;;;;;;;;;;;21.80;99.90;;;;;;4592210;19;19922;-38
2022/08/11 09:00:06;;;;;;;;;;;22.00;99.90;;;;;;4591852;19;19939;-42
2022/08/11 09:01:42;;;;;;;;;;;22.10;99.90;;;;;;4591918;19;19974;-39
2022/08/11 09:03:12;;;;;;;;;;;22.20;99.90;;;;;;4592115;19;19919;-33
2022/08/11 09:04:43;;;;;;;;;;;22.30;99.90;;;;;;4591868;19;19938;-37
2022/08/11 09:06:17;;;;;;;;;;;22.30;99.90;;;;;;4591683;19;20017;-40
2022/08/11 09:07:52;;;;;;;;;;;22.30;99.90;;;;;;4591812;19;19923;-35
2022/08/11 09:09:25;;;;;;;;;;;22.30;99.90;;;;;;4591073;19;19948;-37
2022/08/11 09:12:46;;;;;;;;;;;22.30;99.90;;;;;;4592672;19;20330;-35
2022/08/11 09:16:27;;;;;;;;;;;22.30;99.90;;;;;;4591517;19;19927;-45
2022/08/11 09:18:05;;;;;;;;;;;22.40;99.90;;;;;;4591818;19;20329;-37
2022/08/11 09:19:36;;;;;;;;;;;22.40;99.90;;;;;;4591358;19;19925;-35
2022/08/11 09:21:08;;;;;;;;;;;22.40;99.90;;;;;;4591560;19;19923;-37
2022/08/11 09:28:17;;;;;;;;;;;22.30;99.90;;;;;;4591623;19;19923;-43
2022/08/11 09:29:48;;;;;;;;;;;22.20;99.90;;;;;;4591415;19;19925;-39
2022/08/11 09:31:21;;;;;;;;;;;22.30;99.90;;;;;;4592022;19;19922;-37
2022/08/11 09:32:56;;;;;;;;;;;22.50;99.90;;;;;;4592058;19;19919;-35
2022/08/11 09:34:40;;;;;;;;;;;22.60;99.90;;;;;;4592296;19;20267;-37
2022/08/11 09:42:09;;;;;;;;;;;22.80;99.90;;;;;;4590674;19;19974;-34
2022/08/11 09:45:51;;;;;;;;;;;22.80;99.90;;;;;;4590815;19;19923;-39
2022/08/11 09:47:23;;;;;;;;;;;22.80;99.90;;;;;;4591190;19;19931;-34
2022/08/11 09:48:57;;;;;;;;;;;22.80;99.90;;;;;;4590468;19;19970;-34
2022/08/11 09:50:28;;;;;;;;;;;22.80;99.90;;;;;;4591299;19;19915;-33
2022/08/11 09:52:02;;;;;;;;;;;22.80;99.90;;;;;;4590041;19;19925;-39
2022/08/11 09:53:36;;;;;;;;;;;22.80;99.90;;;;;;4590671;19;19911;-39
2022/08/11 09:55:10;;;;;;;;;;;22.90;99.90;;;;;;4591045;19;19927;-35
2022/08/11 09:58:31;;;;;;;;;;;23.20;99.90;;;;;;4590978;19;19914;-40
2022/08/11 10:00:02;;;;;;;;;;;23.30;99.90;;;;;;4589990;19;19937;-39
2022/08/11 10:01:39;;;;;;;;;;;23.30;99.90;;;;;;4590134;19;19918;-35
2022/08/11 10:03:16;;;;;;;;;;;23.30;99.90;;;;;;4590541;19;19922;-35
2022/08/11 10:04:47;;;;;;;;;;;23.30;99.90;;;;;;4590412;19;19919;-34
2022/08/11 10:08:08;;;;;;;;;;;23.20;99.90;;;;;;4590344;19;19936;-34
2022/08/11 10:09:47;;;;;;;;;;;23.10;99.90;;;;;;4589591;19;19915;-34
2022/08/11 10:11:33;;;;;;;;;;;23.20;99.90;;;;;;4590812;19;19923;-38
2022/08/11 10:13:06;;;;;;;;;;;23.20;99.90;;;;;;4590397;19;19915;-39
2022/08/11 10:16:33;;;;;;;;;;;23.10;99.90;;;;;;4590608;19;20428;-35
2022/08/11 10:20:02;;;;;;;;;;;23.10;99.90;;;;;;4592628;19;19926;-34
2022/08/11 10:21:35;;;;;;;;;;;23.30;99.90;;;;;;4592205;19;20338;-35
2022/08/11 10:27:00;;;;;;;;;;;23.30;99.90;;;;;;4592256;19;19919;-36
2022/08/11 10:28:31;;;;;;;;;;;23.10;99.90;;;;;;4590090;19;19918;-36
2022/08/11 10:33:59;;;;;;;;;;;23.20;99.90;;;;;;4592060;19;20340;-43
2022/08/11 10:35:54;;;;;;;;;;;23.30;99.90;;;;;;4591712;19;19982;-42
2022/08/11 10:37:47;;;;;;;;;;;23.20;99.90;;;;;;4591499;19;19946;-34
2022/08/11 10:39:19;;;;;;;;;;;23.10;99.90;;;;;;4591769;19;19918;-38
2022/08/11 10:43:01;;;;;;;;;;;22.90;99.90;;;;;;4592540;19;19919;-38
2022/08/11 10:44:32;;;;;;;;;;;22.90;99.90;;;;;;4591481;19;19991;-35
2022/08/11 10:47:54;;;;;;;;;;;23.00;99.90;;;;;;4590931;19;19916;-35
2022/08/11 10:49:26;;;;;;;;;;;23.00;99.90;;;;;;4591098;19;19911;-34
2022/08/11 10:51:14;;;;;;;;;;;23.10;99.90;;;;;;4590615;19;19922;-35
2022/08/11 11:00:23;;;;;;;;;;;23.30;99.90;;;;;;4591648;19;19915;-42
2022/08/11 11:02:16;;;;;;;;;;;23.20;99.90;;;;;;4589529;19;19930;-41
2022/08/11 11:04:00;;;;;;;;;;;23.10;99.90;;;;;;4591237;19;20333;-34
2022/08/11 11:05:41;;;;;;;;;;;23.10;99.90;;;;;;4590485;19;19948;-35
2022/08/11 11:07:23;;;;;;;;;;;23.10;99.90;;;;;;4590252;19;19911;-35
2022/08/11 11:09:15;;;;;;;;;;;23.10;99.90;;;;;;4588864;19;20272;-37
2022/08/11 11:10:48;;;;;;;;;;;23.20;99.90;;;;;;4591020;19;19926;-34
2022/08/11 11:17:55;;;;;;;;;;;23.20;99.90;;;;;;4591548;19;19914;-40
2022/08/11 11:19:27;;;;;;;;;;;23.20;99.90;;;;;;4591110;19;19940;-35
2022/08/11 11:21:08;;;;;;;;;;;23.20;99.90;;;;;;4590149;19;20388;-41
2022/08/11 11:22:39;;;;;;;;;;;23.30;99.90;;;;;;4590264;19;19918;-39
2022/08/11 11:24:13;;;;;;;;;;;23.30;99.90;;;;;;4590728;19;20243;-37
2022/08/11 11:26:05;;;;;;;;;;;23.20;99.90;;;;;;4590568;19;19923;-35
2022/08/11 11:27:48;;;;;;;;;;;23.20;99.90;;;;;;4588712;19;20353;-38
2022/08/11 11:29:29;;;;;;;;;;;23.30;99.90;;;;;;4589302;19;19918;-38
2022/08/11 11:31:10;;;;;;;;;;;23.50;99.90;;;;;;4590553;19;19982;-40
2022/08/11 11:32:50;;;;;;;;;;;23.40;99.90;;;;;;4590315;19;19934;-36
2022/08/11 11:34:31;;;;;;;;;;;23.40;99.90;;;;;;4590739;19;20364;-37
2022/08/11 11:36:04;;;;;;;;;;;23.50;99.90;;;;;;4591134;19;20333;-38
2022/08/11 11:37:35;;;;;;;;;;;23.50;99.90;;;;;;4591295;19;19911;-39
2022/08/11 11:39:06;;;;;;;;;;;23.50;99.90;;;;;;4590990;19;19967;-39
2022/08/11 11:40:37;;;;;;;;;;;23.40;99.90;;;;;;4589982;19;19911;-39
2022/08/11 11:42:09;;;;;;;;;;;23.50;99.90;;;;;;4590276;19;19914;-44
2022/08/11 11:43:40;;;;;;;;;;;23.60;99.90;;;;;;4591130;19;19938;-42
2022/08/11 11:45:14;;;;;;;;;;;23.60;99.90;;;;;;4589589;19;19923;-42
2022/08/11 11:46:45;;;;;;;;;;;23.60;99.90;;;;;;4590154;19;19952;-35
2022/08/11 11:48:16;;;;;;;;;;;23.50;99.90;;;;;;4590593;19;19938;-44
2022/08/11 11:49:48;;;;;;;;;;;23.40;99.90;;;;;;4589722;19;20470;-37
2022/08/11 11:51:20;;;;;;;;;;;23.40;99.90;;;;;;4589598;19;19923;-35
2022/08/11 11:52:52;;;;;;;;;;;23.30;99.90;;;;;;4590150;19;19911;-36
2022/08/11 11:54:26;;;;;;;;;;;23.20;99.90;;;;;;4590868;19;19910;-34
2022/08/11 11:55:57;;;;;;;;;;;23.10;99.90;;;;;;4589796;19;19926;-39
2022/08/11 12:01:18;;;;;;;;;;;23.20;99.90;;;;;;4589451;19;20388;-36
2022/08/11 12:02:50;;;;;;;;;;;23.30;99.90;;;;;;4589977;19;19915;-46
2022/08/11 12:04:21;;;;;;;;;;;23.30;99.90;;;;;;4588616;19;20317;-36
2022/08/11 12:05:53;;;;;;;;;;;23.30;99.90;;;;;;4593381;19;19942;-34
2022/08/11 12:09:17;;;;;;;;;;;23.10;99.90;;;;;;4593361;19;20249;-37
2022/08/11 12:13:39;;;;;;;;;;;23.20;99.90;;;;;;4594758;19;19978;-40
2022/08/11 12:14:31;;;;;;;;;;;23.00;99.90;;;;;;4592305;19;20241;-34
2022/08/11 12:16:04;;;;;;;;;;;22.80;99.90;;;;;;4593109;19;19949;-35
2022/08/11 12:17:40;;;;;;;;;;;22.80;99.90;;;;;;4592822;19;20530;-38
2022/08/11 12:19:15;;;;;;;;;;;22.90;99.90;;;;;;4593489;19;19919;-35
2022/08/11 12:20:48;;;;;;;;;;;23.00;99.90;;;;;;4592955;19;19933;-37
2022/08/11 12:27:48;;;;;;;;;;;23.60;99.90;;;;;;4590414;19;19926;-40
2022/08/11 12:29:19;;;;;;;;;;;23.70;99.90;;;;;;4591013;19;20334;-43
2022/08/11 12:30:50;;;;;;;;;;;23.80;99.90;;;;;;4592082;19;19919;-34
2022/08/11 12:32:26;;;;;;;;;;;23.90;99.70;;;;;;4591603;19;19925;-34
2022/08/11 12:34:03;;;;;;;;;;;23.80;99.70;;;;;;4592176;19;19930;-37
2022/08/11 12:35:34;;;;;;;;;;;23.70;99.90;;;;;;4591952;19;19984;-43
2022/08/11 12:37:09;;;;;;;;;;;23.80;99.90;;;;;;4592332;19;19918;-34
2022/08/11 12:38:41;;;;;;;;;;;23.80;99.90;;;;;;4592015;19;19926;-35
2022/08/11 12:45:44;;;;;;;;;;;24.00;99.90;;;;;;4594374;19;19915;-44
2022/08/11 12:47:16;;;;;;;;;;;24.00;99.90;;;;;;4594713;19;20249;-36
2022/08/11 12:52:27;;;;;;;;;;;24.20;99.90;;;;;;4591491;19;19925;-44
2022/08/11 12:54:07;;;;;;;;;;;24.20;99.90;;;;;;4592245;19;20345;-42
2022/08/11 13:04:52;;;;;;;;;;;24.40;99.90;;;;;;4594233;19;19978;-42
2022/08/11 13:06:23;;;;;;;;;;;24.40;99.90;;;;;;4595258;19;19915;-37
2022/08/11 13:07:54;;;;;;;;;;;24.40;99.90;;;;;;4593930;19;19914;-41
2022/08/11 13:09:25;;;;;;;;;;;24.40;99.90;;;;;;4592142;19;19919;-41
2022/08/11 13:12:49;;;;;;;;;;;24.40;99.90;;;;;;4594063;19;19926;-39